Yigo, GU

6:03 PM ChST on June 02, 2015 (GMT +1000)
Paradise Estates, Dededo, Guam | | Change Station
CLOSE
Current Station
Personal Weather Station
Location: Guam,
Elevation: 449 ft
Nearby Weather Stations

Elev 449 ft 13.53 °N, 144.86 °E | Updated 8 seconds ago

Mostly Cloudy
Mostly Cloudy
81.5 °F
Feels Like 81 °F
N
11.4
Wind Variable Wind from East
Gusts 18.3 mph

Today
High -- | Low -- °F
--% Chance of Precip.
Yesterday
High -- | Low -- °F
Precip. -- in
5:52 AM 6:44 PM
Full, 100% visible
Pressure 29.82 in
Visibility 10.0 miles
Clouds Scattered Clouds 1400 ft
Mostly Cloudy 11000 ft
Heat Index 81 °F
Dew Point 56 °F
Humidity 41%
Rainfall 0.00 in
Snow Depth Not available.
UV 0 out of 12
Pollen Not available.
Air Quality Not available.
Flu Activity Regional
METAR PGUA 020758Z AUTO 09014KT 10SM SCT014 BKN110 26/23 A2985 RMK AO2 SLP098 T02640234 VISNO RWY24L CHINO RWY24L $

More Conditions Fewer Conditions

Pressure 29.82 in
Visibility 10.0 miles
Clouds Scattered Clouds 1400 ft
Mostly Cloudy 11000 ft
Heat Index 81 °F
Dew Point 56 °F
Humidity 41%
Rainfall 0.00 in
Snow Depth Not available.
UV 0 out of 12
Pollen Not available.
Air Quality Not available.
Flu Activity Regional
METAR PGUA 020758Z AUTO 09014KT 10SM SCT014 BKN110 26/23 A2985 RMK AO2 SLP098 T02640234 VISNO RWY24L CHINO RWY24L $

More Conditions Fewer Conditions

10-Day Weather Forecast

Almanac

Astronomy

Jun. 02, 2015 Rise Set
Actual Time
Civil Twilight
Nautical Twilight
Astronomical Twilight
Moon
Length of Visible Light
Length of Day
Tomorrow will be .
, % of the Moon is Illuminated

Today's Extremes

State Highs State Lows

Community

WunderPhotos

Upload Photos

1,825,895 photos uploaded!

WunderBlogs® & News

Nearby

Air Quality

  Air Quality AQ Index Pollutant
Not available.

Snow Depth

Station Depth Elevation

Earthquake Activity

City Distance Mag. Time & Date
Minimum magnitude displayed is 2.5.

Coastal Water Temperatures

Place Temperature

Stations

Nearby Weather Stations

Station Location Temp. Windchill Dew Point Humidity Wind Precip. Elev Updated Type